Sierra Nevada Aquatic Research Lab (SNARL) Reserve, Santa Monica Mtns, California Weather observations

Data are for 10 minute period ending at time listed.
 Day   Time   Solar   Ave.   Ave.  Ave.  Vector  Max.   Baro.   Total    
  of    of     Rad.   Air    Rel.  Wind   Wind   Wind  Press.  Precip.   
Year   Day            Temp.  Hum.  Speed  Dir.   Gust                    
2014   (PST)  Kw/m2    F      %     mph   deg.    mph    mb.     in.     
-------------------------------------------------------------------------
 357   18:50   0.00   31.8    62    1.8   309     4.1   789.3    0.00 
 357   19:00   0.00   31.6    61    2.3   278     4.6   789.4    0.00 
 357   19:10   0.00   31.3    61    0.6   260     2.1   789.4    0.00 
 357   19:20   0.00   31.1    61    0.9   240     2.0   789.5    0.00 
 357   19:30   0.00   29.0    67    1.7   280     2.4   789.5    0.00 
 357   19:40   0.00   29.4    66    1.9   255     3.0   789.5    0.00 
 357   19:50   0.00   28.8    67    1.8   225     2.8   789.5    0.00 
 357   20:00   0.00   28.1    69    2.7   236     3.4   789.5    0.00 
 357   20:10   0.00   28.6    69    2.7   246     3.9   789.4    0.00 
 357   20:20   0.00   27.9    72    2.2   322     3.6   789.4    0.00 
 357   20:30   0.00   26.4    75    1.4   261     3.9   789.5    0.00 
 357   20:40   0.00   26.9    72    1.3   244     2.3   789.5    0.00 
 357   20:50   0.00   26.2    76    2.2   310     4.3   789.6    0.00 
 357   21:00   0.00   26.6    75    3.0   312     4.5   789.5    0.00 
 357   21:10   0.00   25.6    77    2.7   310     4.7   789.6    0.00 
 357   21:20   0.00   25.2    77    1.7   277     3.3   789.5    0.00 
 357   21:30   0.00   24.5    79    0.7   183     2.0   789.5    0.00 
 357   21:40   0.00   25.7    77    0.9   265     2.4   789.6    0.00 
 357   21:50   0.00   24.8    79    1.7   282     3.4   789.6    0.00 
 357   22:00   0.00   25.0    80    1.6   278     2.3   789.5    0.00 
 357   22:10   0.00   25.6    78    3.0   308     6.4   789.5    0.00 
 357   22:20   0.00   26.1    76    2.2   316     6.4   789.4    0.00 
 357   22:30   0.00   24.7    79    1.1   261     2.9   789.4    0.00 
 357   22:40   0.00   23.6    83    1.7   289     2.5   789.3    0.00 
 357   22:50   0.00   23.6    83    1.8   263     3.1   789.3    0.00 
 357   23:00   0.00   24.1    81    2.9   326     5.8   789.2    0.00 
 357   23:10   0.00   23.6    81    1.6   284     5.2   789.1    0.00 
 357   23:20   0.00   23.2    82    0.5   284     2.0   789.0    0.00 
 357   23:30   0.00   23.0    83    1.2   292     2.4   788.8    0.00 
 357   23:40   0.00   22.4    86    2.6   309     4.5   788.8    0.00 
 357   23:50   0.00   22.5    82    1.0   315     3.3   788.7    0.00 
 358    0:00   0.00   21.9    86    0.9   268     1.8   788.6    0.00 
 358    0:10   0.00   21.9    85    0.4   254     1.3   788.5    0.00 
 358    0:20   0.00   21.4    84    0.5   211     1.4   788.3    0.00 
 358    0:30   0.00   20.6    87    1.1   240     2.8   788.1    0.00 
 358    0:40   0.00   20.9    88    1.9   312     3.6   787.9    0.00 
 358    0:50   0.00   21.0    88    2.0   271     4.2   787.7    0.00 
 358    1:00   0.00   21.4    87    1.4   182     3.6   787.7    0.00 
 358    1:10   0.00   21.9    85    2.7   244     5.6   787.7    0.00 
 358    1:20   0.00   21.3    87    2.3   344     4.9   787.6    0.00 
 358    1:30   0.00   21.4    87    2.0   299     3.3   787.6    0.00 
 358    1:40   0.00   21.4    87    3.3   281     5.7   787.6    0.00 
 358    1:50   0.00   22.6    86    3.7   304     5.8   787.6    0.00 
 358    2:00   0.00   21.8    84    1.6   214     3.4   787.6    0.00 
 358    2:10   0.00   20.1    88    1.7    21     4.0   787.7    0.00 
 358    2:20   0.00   19.6    89    2.5   252     6.4   787.6    0.00 
 358    2:30   0.00   20.6    90    2.2   294     6.3   787.6    0.00 
 358    2:40   0.00   21.1    88    1.9   347     4.5   787.5    0.00 
 358    2:50   0.00   20.9    90    1.6   304     4.3   787.4    0.00 
 358    3:00   0.00   21.3    89    1.6    77     4.2   787.4    0.00 
 358    3:10   0.00   22.1    89    1.9   278     4.3   787.3    0.00 
 358    3:20   0.00   22.9    88    1.3   302     4.1   787.3    0.00 
 358    3:30   0.00   22.8    88    3.3   316     7.3   787.2    0.00 
 358    3:40   0.00   22.8    88    2.5   307     4.5   787.0    0.00 
 358    3:50   0.00   22.6    87    3.1   161     6.0   786.8    0.00 
 358    4:00   0.00   23.3    86    3.1   232     9.6   786.7    0.00 
 358    4:10   0.00   24.3    83    1.3   290     3.9   786.7    0.00 
 358    4:20   0.00   23.2    85    2.2   336     5.3   786.5    0.00 
 358    4:30   0.00   21.4    88    2.0   154     4.5   786.6    0.00 
 358    4:40   0.00   20.9    90    2.8   255     6.6   786.6    0.00 
 358    4:50   0.00   21.1    91    1.9   190     4.5   786.6    0.00 
 358    5:00   0.00   21.1    90    2.5   218     3.7   786.4    0.00 
 358    5:10   0.00   21.6    90    2.6   220     5.6   786.1    0.00 
 358    5:20   0.00   22.9    89    3.1   316     5.3   786.1    0.00 
 358    5:30   0.00   23.6    87    2.9   309     5.4   786.1    0.00 
 358    5:40   0.00   23.8    87    3.1    82     7.5   786.2    0.00 
 358    5:50   0.00   24.1    86    2.7   312     7.5   786.1    0.00 
 358    6:00   0.00   24.0    87    2.5   260     4.4   786.1    0.00 
 358    6:10   0.00   24.6    86    2.6   303     6.2   786.2    0.00 
 358    6:20   0.00   24.3    86    2.8   286     5.7   786.0    0.00 
 358    6:30   0.00   24.0    87    2.7   294     8.6   785.9    0.00 
 358    6:40   0.00   24.2    86    2.3   282     6.8   786.0    0.00 
 358    6:50   0.00   23.4    88    2.1   232     5.0   785.8    0.00 
 358    7:00   0.00   24.8    85    2.3   300     5.6   785.7    0.00 
 358    7:10   0.00   24.6    85    1.4    40     2.3   785.6    0.00 
 358    7:20   0.00   23.9    86    1.2    56     2.9   785.4    0.00 
 358    7:30   0.01   23.0    88    1.2    87     3.3   785.3    0.00 
 358    7:40   0.02   21.9    90    3.3   257     5.3   785.1    0.00 
 358    7:50   0.03   23.0    90    0.6   355     3.0   785.1    0.00 
 358    8:00   0.04   23.7    88    2.6   339     4.6   785.2    0.00 
 358    8:10   0.07   24.3    87    1.0    28     3.6   785.1    0.00 
 358    8:20   0.14   26.2    84    2.0   109     5.1   784.9    0.00 
 358    8:30   0.10   28.0    79    2.3   256     7.2   784.9    0.00 
 358    8:40   0.09   28.6    79    2.4   107     5.9   784.7    0.00 
 358    8:50   0.26   30.4    76    3.0   119     6.3   784.4    0.00 
 358    9:00   0.26   32.0    72    2.5    78     5.2   784.4    0.00 
 358    9:10   0.24   33.4    69    3.0    96     5.7   784.2    0.00 
 358    9:20   0.31   33.6    68    3.7   120     6.4   784.0    0.00 
 358    9:30   0.35   36.2    63    3.6    39     8.7   784.0    0.00 
 358    9:40   0.32   37.5    63    4.6    63     9.0   783.6    0.00 
 358    9:50   0.37   39.8    57    4.1    67     9.4   783.4    0.00 
 358   10:00   0.41   41.2    55    4.7    61     9.2   783.2    0.00 
 358   10:10   0.43   41.5    53    7.9    68    13.8   783.1    0.00 
 358   10:20   0.43   41.1    54    7.8    60    11.8   782.8    0.00 
 358   10:30   0.50   46.3    36    9.7   248    19.1   782.6    0.00 
 358   10:40   0.45   49.1    33    8.6   304    27.5   782.2    0.00 
 358   10:50   0.50   52.5    23   18.0   219    35.1   781.8    0.00 
 358   11:00   0.50   53.8    22   16.5   215    41.9   781.3    0.00 
 358   11:10   0.45   53.2    23   19.8   220    39.9   781.0    0.00 
 358   11:20   0.40   52.6    26   25.0   224    39.9   780.8    0.00 
 358   11:30   0.30   52.0    30   23.6   221    45.9   780.6    0.00 
 358   11:40   0.27   51.4    31   24.0   220    41.5   780.5    0.00 
 358   11:50   0.26   51.3    31   19.1   234    33.4   780.6    0.00 
 358   12:00   0.25   51.3    31   22.5   244    38.1   780.6    0.00 
 358   12:10   0.20   50.8    31   20.2   251    30.7   780.6    0.00 
 358   12:20   0.16   50.3    31   17.0   256    30.0   780.7    0.00 
 358   12:30   0.14   49.4    32   15.6   261    30.8   780.7    0.00 
 358   12:40   0.15   48.2    35   15.4   257    27.9   780.6    0.00 
 358   12:50   0.15   47.8    35   11.4   228    20.1   780.3    0.00 
 358   13:00   0.13   47.5    35   16.8   216    30.0   780.1    0.00 
 358   13:10   0.12   47.2    34   17.2   213    29.3   779.8    0.00 
 358   13:20   0.11   47.2    34   12.1   248    22.6   779.7    0.00 
 358   13:30   0.09   46.7    34   11.0   218    23.3   779.4    0.00 
 358   13:40   0.08   45.5    37   19.9   212    40.0   779.1    0.00 
 358   13:50   0.07   44.1    42   16.7   218    37.6   778.6    0.00 
 358   14:00   0.06   42.0    49   28.4   209    44.0   777.9    0.00 
 358   14:10   0.06   41.6    50   22.4   224    36.0   777.4    0.00 
 358   14:20   0.05   42.2    47   19.6   235    36.0   777.4    0.00 
 358   14:30   0.07   42.4    47   19.4   221    34.4   777.3    0.00 
 358   14:40   0.07   43.2    44   26.5   207    44.2   777.1    0.00 
 358   14:50   0.07   43.5    43   24.9   212    42.1   776.9    0.00 
 358   15:00   0.07   43.5    42   23.6   209    46.0   776.7    0.00 
 358   15:10   0.04   43.6    41   16.9   216    36.8   777.1    0.00 
 358   15:20   0.02   42.2    49   21.4   208    37.7   776.9    0.00 
 358   15:30   0.01   40.8    55   12.8   229    21.5   776.8    0.00 
 358   15:40   0.02   40.2    60    8.9   239    19.6   776.7    0.00 
 358   15:50   0.03   40.1    60   12.4   242    25.6   776.2    0.00 
 358   16:00   0.01   39.1    67   10.6   225    14.9   775.9    0.00 
 358   16:10   0.01   38.0    71    8.1   252    15.8   775.6    0.00 
 358   16:20   0.00   38.2    68   11.0   259    21.5   775.2    0.01 
 358   16:30   0.00   38.5    67   11.9   225    21.4   775.0    0.00 
 358   16:40   0.00   38.8    64   12.8   244    27.8   774.8    0.01 
 358   16:50   0.00   38.4    66   11.7   231    23.7   774.3    0.00 
 358   17:00   0.00   38.1    66   11.4   219    35.2   774.0    0.01 
 358   17:10   0.00   38.2    65   13.9   216    28.6   773.5    0.00 
 358   17:20   0.00   37.7    66   15.4   218    32.7   773.2    0.00 
 358   17:30   0.00   37.7    63   16.3   223    32.4   773.1    0.00 
 358   17:40   0.00   37.7    59   20.0   228    34.6   773.2    0.01 
 358   17:50   0.00   36.7    67   12.3   279    24.0   773.6    0.00 
 358   18:00   0.00   33.5    86   10.6   274    20.0   773.6    0.00 
 358   18:10   0.00   33.0    88    8.2   250    15.9   773.4    0.00 
 358   18:20   0.00   33.3    87    6.8   246    18.9   773.2    0.00 
 358   18:30   0.00   33.4    88    9.4   238    23.5   772.9    0.00 
 358   18:40   0.00   34.8    75   14.2   240    22.2   772.7    0.00 

Return to SNARL Reserve graphs page.


Western Regional Climate Center,wrcc@dri.edu